ESSP/NRK METAR and TAF weather

Enter ICAO airport designator
Station Type Date Time Source
ESSP METAR 2019/09/20 09:20 UTC NOAA

ESSP 200920Z 23008KT CAVOK 12/07 Q1020


Station Type Date Time Source
ESSP Decoded METAR 2019/09/20 09:20 UTC NOAA

Norrkoping, Sweden (ESSP) 58-35N 016-09E 0M
Sep 20, 2019 - 05:20 AM EDT / 2019.09.20 0920 UTC
Wind: from the SW (230 degrees) at 9 MPH (8 KT):0
Visibility: greater than 7 mile(s):0
Temperature: 53 F (12 C)
Dew Point: 44 F (7 C)
Relative Humidity: 71%
Pressure (altimeter): 30.12 in. Hg (1020 hPa)
ob: ESSP 200920Z 23008KT CAVOK 12/07 Q1020
cycle: 9

Station Type Date Time Source
ESSP TAF 2018/01/01 02:31 UTC NOAA

TAF ESSP 010130Z 0102/0206 16002KT 9999 BKN004 PROB40 0102/0106 4000 BR SCT004

Example: see airport list